Time;durP1;ratioP1;P1;durP2;ratioP2;P2;SDS_P1;SDS_P2;PMS_P1;PMS_P2;Temp;Humidity;BMP_temperature;BMP_pressure;BME280_temperature;BME280_humidity;BME280_pressure;Samples;Min_cycle;Max_cycle;Signal;HPM_P1;HPM_P2
2022/05/18 00:00:51;;;;;;;4.28;3.88;;;;;;;16.67;100.00;94380.47;5050562;28;20185;-60
2022/05/18 00:03:20;;;;;;;4.35;3.95;;;;;;;16.58;100.00;94370.44;5034031;28;20270;-60
2022/05/18 00:05:46;;;;;;;5.65;3.97;;;;;;;16.72;100.00;94374.81;5050591;28;20173;-60
2022/05/18 00:08:12;;;;;;;5.00;4.50;;;;;;;16.87;100.00;94367.16;5051897;28;20198;-62
2022/05/18 00:10:40;;;;;;;4.32;3.88;;;;;;;16.69;100.00;94364.88;5050472;28;20174;-61
2022/05/18 00:13:06;;;;;;;4.28;3.88;;;;;;;16.84;100.00;94364.91;5051745;28;20296;-59
2022/05/18 00:15:32;;;;;;;4.70;3.65;;;;;;;16.61;100.00;94360.63;5052114;28;20310;-59
2022/05/18 00:17:57;;;;;;;4.68;4.28;;;;;;;16.67;100.00;94349.66;5050520;28;20302;-60
2022/05/18 00:20:24;;;;;;;4.88;4.38;;;;;;;16.66;100.00;94355.75;5051848;28;20170;-59
2022/05/18 00:22:53;;;;;;;4.75;4.30;;;;;;;16.56;100.00;94354.41;5050311;28;20206;-60
2022/05/18 00:25:20;;;;;;;4.15;3.83;;;;;;;16.50;100.00;94358.44;5051640;28;20174;-62
2022/05/18 00:27:46;;;;;;;4.18;3.80;;;;;;;16.31;100.00;94366.59;5051685;28;20240;-61
2022/05/18 00:30:15;;;;;;;4.57;4.18;;;;;;;16.19;100.00;94360.28;5050366;28;20186;-60
2022/05/18 00:32:40;;;;;;;5.70;3.90;;;;;;;16.23;100.00;94360.72;5051489;28;20217;-60
2022/05/18 00:35:07;;;;;;;4.55;4.15;;;;;;;16.12;100.00;94356.00;5051522;28;20178;-60
2022/05/18 00:37:32;;;;;;;4.47;3.80;;;;;;;16.08;100.00;94357.31;5051740;28;20251;-59
2022/05/18 00:39:58;;;;;;;4.63;4.18;;;;;;;16.07;100.00;94365.97;5050343;28;20178;-60
2022/05/18 00:42:25;;;;;;;4.43;4.03;;;;;;;15.98;100.00;94362.66;5055034;28;20603;-63
2022/05/18 00:44:51;;;;;;;5.75;4.25;;;;;;;16.01;100.00;94366.66;5054181;28;20186;-60
2022/05/18 00:47:16;;;;;;;5.22;4.70;;;;;;;16.07;100.00;94371.09;5054047;28;20192;-61
2022/05/18 00:49:47;;;;;;;4.85;3.92;;;;;;;16.01;100.00;94370.00;5054124;28;20216;-60
2022/05/18 00:52:14;;;;;;;7.10;4.28;;;;;;;16.05;100.00;94378.97;5055262;28;20166;-62
2022/05/18 00:54:42;;;;;;;4.68;4.28;;;;;;;16.08;100.00;94372.72;5055434;28;20186;-60
2022/05/18 00:57:11;;;;;;;11.13;4.80;;;;;;;16.09;100.00;94375.09;5055447;28;20251;-60
2022/05/18 00:59:49;;;;;;;4.32;3.92;;;;;;;16.09;100.00;94369.97;5055599;28;20205;-62
2022/05/18 01:02:16;;;;;;;6.55;4.80;;;;;;;16.05;100.00;94375.59;5053729;28;20666;-60
2022/05/18 01:04:44;;;;;;;5.60;4.75;;;;;;;15.95;100.00;94370.69;5054981;28;20177;-61
2022/05/18 01:07:24;;;;;;;5.75;4.43;;;;;;;15.87;100.00;94363.03;5054893;28;20186;-63
2022/05/18 01:09:50;;;;;;;6.78;4.97;;;;;;;15.88;100.00;94362.06;5053833;28;20191;-59
2022/05/18 01:12:18;;;;;;;5.13;4.30;;;;;;;15.78;100.00;94358.91;5054864;28;20557;-58
2022/05/18 01:14:46;;;;;;;5.43;4.35;;;;;;;15.85;100.00;94358.09;5054921;28;20203;-61
2022/05/18 01:17:15;;;;;;;4.70;4.30;;;;;;;15.83;100.00;94354.09;5055176;28;20185;-60
2022/05/18 01:19:45;;;;;;;4.85;4.35;;;;;;;15.80;100.00;94356.97;5054778;28;20189;-59
2022/05/18 01:22:26;;;;;;;4.65;4.20;;;;;;;15.73;100.00;94363.75;5054848;28;20185;-61
2022/05/18 01:25:03;;;;;;;6.28;4.43;;;;;;;15.68;100.00;94348.88;5054918;28;20690;-60
2022/05/18 01:27:29;;;;;;;5.53;5.03;;;;;;;15.68;100.00;94345.50;5054843;28;20170;-60
2022/05/18 01:29:55;;;;;;;5.13;4.68;;;;;;;15.74;100.00;94344.84;5054964;28;20204;-62
2022/05/18 01:32:21;;;;;;;4.82;4.38;;;;;;;15.76;100.00;94343.72;5054400;28;20193;-62
2022/05/18 01:34:46;;;;;;;9.25;7.13;;;;;;;15.70;100.00;94343.59;5053178;28;20197;-61
2022/05/18 01:37:14;;;;;;;5.43;4.93;;;;;;;15.76;100.00;94342.91;5053298;28;20631;-61
2022/05/18 01:39:46;;;;;;;6.13;5.53;;;;;;;15.73;100.00;94338.13;5054755;28;20188;-62
2022/05/18 01:42:19;;;;;;;5.68;4.75;;;;;;;15.73;100.00;94333.00;5053109;28;20273;-59
2022/05/18 01:44:45;;;;;;;4.90;4.50;;;;;;;15.63;100.00;94345.22;5054339;28;20200;-60
2022/05/18 01:47:10;;;;;;;6.47;5.13;;;;;;;15.55;100.00;94335.03;5054285;28;20173;-61
2022/05/18 01:49:39;;;;;;;4.85;4.45;;;;;;;15.60;100.00;94335.31;5054748;28;20206;-61
2022/05/18 01:52:06;;;;;;;5.30;4.80;;;;;;;15.61;100.00;94339.47;5035876;28;20181;-59
2022/05/18 01:54:44;;;;;;;6.00;4.80;;;;;;;15.60;100.00;94345.56;5053010;28;20287;-61
2022/05/18 01:57:10;;;;;;;6.15;5.05;;;;;;;15.66;100.00;94332.06;5054398;28;20173;-61
2022/05/18 01:59:37;;;;;;;4.93;4.10;;;;;;;15.62;100.00;94336.75;5054473;28;20205;-59
2022/05/18 02:02:06;;;;;;;6.15;5.03;;;;;;;15.60;100.00;94338.69;5054191;28;20178;-60
2022/05/18 02:04:33;;;;;;;4.93;4.45;;;;;;;15.66;100.00;94340.56;5054401;28;20292;-60
2022/05/18 02:06:59;;;;;;;6.10;4.53;;;;;;;15.74;100.00;94339.72;5053907;28;20172;-61
2022/05/18 02:09:26;;;;;;;6.68;5.00;;;;;;;15.79;100.00;94328.00;5053176;28;20217;-60
2022/05/18 02:11:52;;;;;;;5.35;4.85;;;;;;;16.04;100.00;94333.75;5053958;28;20205;-58
2022/05/18 02:14:17;;;;;;;4.95;4.45;;;;;;;15.94;100.00;94340.88;5054068;28;20228;-59
2022/05/18 02:16:43;;;;;;;5.03;4.32;;;;;;;15.88;100.00;94337.22;5052682;28;20178;-61
2022/05/18 02:19:08;;;;;;;4.40;4.07;;;;;;;15.72;100.00;94341.66;5053853;28;20255;-59
2022/05/18 02:21:34;;;;;;;4.40;4.00;;;;;;;15.70;100.00;94341.03;5053677;28;20173;-61
2022/05/18 02:23:59;;;;;;;3.95;3.63;;;;;;;15.73;100.00;94349.19;5052619;28;20357;-59
2022/05/18 02:26:25;;;;;;;4.40;3.55;;;;;;;15.69;100.00;94329.19;5053523;28;20188;-62
2022/05/18 02:28:50;;;;;;;9.07;4.20;;;;;;;15.72;100.00;94328.84;5053805;28;20304;-61
2022/05/18 02:31:15;;;;;;;3.42;3.13;;;;;;;15.69;100.00;94357.38;5053616;28;20252;-59
2022/05/18 02:33:41;;;;;;;3.90;3.58;;;;;;;15.65;100.00;94351.00;5053778;28;20240;-61
2022/05/18 02:36:10;;;;;;;3.65;3.00;;;;;;;15.66;100.00;94335.44;5053463;28;20667;-61
2022/05/18 02:38:37;;;;;;;3.53;2.78;;;;;;;15.72;100.00;94332.19;5053465;28;20209;-62
2022/05/18 02:41:03;;;;;;;3.08;2.83;;;;;;;15.70;100.00;94339.25;5053351;28;20178;-59
2022/05/18 02:43:29;;;;;;;3.58;3.25;;;;;;;15.75;100.00;94336.19;5059901;23;20229;-60
2022/05/18 02:46:25;;;;;;;4.63;3.38;;;;;;;15.88;100.00;94336.44;5053362;28;20174;-61
2022/05/18 02:48:53;;;;;;;3.55;2.80;;;;;;;15.86;100.00;94346.06;5040392;28;20221;-60
2022/05/18 02:51:19;;;;;;;4.35;3.00;;;;;;;15.92;100.00;94350.50;5053001;28;20178;-59
2022/05/18 02:53:45;;;;;;;4.22;3.45;;;;;;;15.87;100.00;94352.78;5051611;28;20220;-59
2022/05/18 02:56:16;;;;;;;3.35;3.05;;;;;;;15.88;100.00;94344.94;5051798;28;20173;-60
2022/05/18 02:58:50;;;;;;;3.97;2.70;;;;;;;16.02;100.00;94340.81;5052798;28;20209;-61
2022/05/18 03:01:23;;;;;;;3.20;2.90;;;;;;;16.02;100.00;94353.66;5051560;28;20643;-60
2022/05/18 03:03:49;;;;;;;2.78;2.58;;;;;;;16.00;100.00;94358.16;5050625;28;20240;-60
2022/05/18 03:06:16;;;;;;;3.83;2.75;;;;;;;16.01;100.00;94351.25;5052867;28;20181;-59
2022/05/18 03:08:43;;;;;;;3.42;3.00;;;;;;;16.27;100.00;94344.84;5051450;28;20260;-61
2022/05/18 03:11:09;;;;;;;3.42;3.13;;;;;;;16.30;100.00;94349.59;5052738;28;20602;-60
2022/05/18 03:13:35;;;;;;;3.05;2.85;;;;;;;16.32;100.00;94370.75;5053045;28;20359;-61
2022/05/18 03:16:02;;;;;;;3.17;2.88;;;;;;;16.19;100.00;94357.72;5053041;28;20206;-59
2022/05/18 03:18:27;;;;;;;4.05;3.42;;;;;;;16.18;100.00;94361.22;5051653;28;20676;-59
2022/05/18 03:23:38;;;;;;;6.22;3.65;;;;;;;16.18;100.00;94358.66;5053241;28;20216;-61
2022/05/18 03:26:03;;;;;;;5.32;3.88;;;;;;;16.16;100.00;94370.09;5052400;28;20750;-58
2022/05/18 03:28:29;;;;;;;8.25;4.75;;;;;;;16.12;100.00;94361.91;5052757;28;20337;-59
2022/05/18 03:30:55;;;;;;;6.45;4.50;;;;;;;16.16;100.00;94360.59;5052765;28;20662;-63
2022/05/18 03:33:22;;;;;;;5.68;4.00;;;;;;;16.20;100.00;94367.00;5050790;28;20225;-62
2022/05/18 03:35:51;;;;;;;6.10;5.30;;;;;;;16.23;100.00;94371.00;5051013;28;20269;-60
2022/05/18 03:38:20;;;;;;;5.00;4.50;;;;;;;16.21;100.00;94362.66;5052639;28;20216;-61
2022/05/18 03:40:45;;;;;;;4.75;4.25;;;;;;;16.21;100.00;94368.59;5050944;28;20166;-62
2022/05/18 03:43:11;;;;;;;5.78;4.57;;;;;;;16.23;100.00;94381.25;5052604;28;20206;-61
2022/05/18 03:45:38;;;;;;;5.32;4.65;;;;;;;16.31;100.00;94384.56;5052228;28;20196;-59
2022/05/18 03:48:06;;;;;;;5.20;4.22;;;;;;;16.31;100.00;94389.69;5051126;28;20204;-60
2022/05/18 03:53:00;;;;;;;5.85;5.20;;;;;;;16.35;100.00;94393.50;5069298;28;20228;-60
2022/05/18 03:55:26;;;;;;;7.82;5.30;;;;;;;16.36;100.00;94379.69;5072208;28;20177;-60
2022/05/18 03:57:52;;;;;;;5.80;5.20;;;;;;;16.46;100.00;94390.53;5072188;28;20613;-59
2022/05/18 04:00:18;;;;;;;5.22;4.65;;;;;;;16.42;100.00;94388.50;5071966;28;20180;-61
2022/05/18 04:02:47;;;;;;;6.55;4.80;;;;;;;16.46;100.00;94390.53;5072218;28;20204;-61
2022/05/18 04:05:15;;;;;;;5.10;4.32;;;;;;;16.48;100.00;94383.47;5072273;28;20607;-61
2022/05/18 04:07:41;;;;;;;5.50;4.80;;;;;;;16.40;100.00;94393.78;5071995;28;20196;-59
2022/05/18 04:10:07;;;;;;;5.25;4.15;;;;;;;16.46;100.00;94382.84;5071825;28;20173;-61
2022/05/18 04:12:34;;;;;;;7.20;5.15;;;;;;;16.49;100.00;94377.41;5072221;28;20217;-63
2022/05/18 04:15:00;;;;;;;5.78;5.18;;;;;;;16.54;100.00;94375.09;5073182;28;20262;-59
2022/05/18 04:17:25;;;;;;;10.77;5.32;;;;;;;16.49;100.00;94385.09;5077658;28;20781;-61
2022/05/18 04:19:51;;;;;;;6.47;5.72;;;;;;;16.48;100.00;94383.47;5078915;28;20173;-61
2022/05/18 04:22:17;;;;;;;6.05;4.97;;;;;;;16.50;100.00;94391.03;5078983;28;20189;-61
2022/05/18 04:24:43;;;;;;;5.50;5.00;;;;;;;16.56;100.00;94380.88;5077288;28;20173;-60
2022/05/18 04:27:10;;;;;;;8.02;5.15;;;;;;;16.60;100.00;94389.81;5078911;28;20631;-61
2022/05/18 04:29:36;;;;;;;7.95;5.20;;;;;;;16.56;100.00;94388.56;5078267;28;20192;-59
2022/05/18 04:32:03;;;;;;;6.18;4.90;;;;;;;16.64;100.00;94391.06;5077344;28;20188;-59
2022/05/18 04:34:28;;;;;;;5.30;4.78;;;;;;;16.56;100.00;94400.63;5078248;28;20205;-61
2022/05/18 04:36:54;;;;;;;6.18;5.32;;;;;;;16.63;100.00;94392.06;5078488;28;20190;-59
2022/05/18 04:39:19;;;;;;;8.10;5.25;;;;;;;16.62;100.00;94392.22;5076879;28;20193;-59
2022/05/18 04:41:45;;;;;;;6.30;5.00;;;;;;;16.53;100.00;94386.34;5078722;28;20307;-61
2022/05/18 04:44:10;;;;;;;6.00;5.40;;;;;;;16.53;100.00;94391.50;5078380;28;20615;-60
2022/05/18 04:46:35;;;;;;;6.32;5.03;;;;;;;16.49;100.00;94386.88;5044051;28;20199;-61
2022/05/18 04:49:01;;;;;;;7.35;5.63;;;;;;;16.58;100.00;94383.28;5078486;28;20200;-61
2022/05/18 04:51:27;;;;;;;7.20;5.80;;;;;;;16.61;100.00;94377.78;5077038;28;20192;-59
2022/05/18 04:53:53;;;;;;;6.95;6.25;;;;;;;16.71;100.00;94375.78;5076809;28;20230;-59
2022/05/18 04:56:18;;;;;;;6.63;5.85;;;;;;;16.60;100.00;94389.81;5078605;28;20184;-61
2022/05/18 04:58:44;;;;;;;7.43;5.90;;;;;;;16.66;100.00;94384.00;5076682;28;20200;-60
2022/05/18 05:01:10;;;;;;;7.43;6.68;;;;;;;16.54;100.00;94376.91;5078473;28;20635;-58
2022/05/18 05:03:36;;;;;;;9.48;6.85;;;;;;;16.60;100.00;94384.69;5078199;28;20189;-61
2022/05/18 05:06:04;;;;;;;7.60;6.80;;;;;;;16.65;100.00;94386.72;5076871;28;20200;-61
2022/05/18 05:08:30;;;;;;;8.32;7.53;;;;;;;16.78;100.00;94392.09;5077928;28;20595;-61
2022/05/18 05:10:56;;;;;;;8.70;7.53;;;;;;;16.75;100.00;94382.16;5077105;28;20192;-62
2022/05/18 05:13:22;;;;;;;8.68;7.75;;;;;;;16.82;100.00;94397.69;5076644;28;20678;-59
2022/05/18 05:15:49;;;;;;;9.07;6.88;;;;;;;16.73;100.00;94400.31;5078141;28;20189;-60
2022/05/18 05:18:15;;;;;;;9.93;7.68;;;;;;;16.63;100.00;94398.94;5078298;28;20205;-59
2022/05/18 05:20:40;;;;;;;9.43;8.52;;;;;;;16.61;100.00;94406.03;5078140;28;20682;-61
2022/05/18 05:23:05;;;;;;;9.90;8.60;;;;;;;16.59;100.00;94392.56;5076928;28;20297;-61
2022/05/18 05:25:31;;;;;;;10.20;8.55;;;;;;;16.56;100.00;94393.69;5077872;28;20576;-61
2022/05/18 05:27:57;;;;;;;10.40;9.32;;;;;;;16.52;100.00;94396.81;5073075;28;20698;-62
2022/05/18 05:30:22;;;;;;;10.18;9.02;;;;;;;16.46;100.00;94402.59;5073473;28;20188;-59
2022/05/18 05:32:48;;;;;;;9.60;8.38;;;;;;;16.49;100.00;94405.63;5074691;28;20199;-61
2022/05/18 05:35:13;;;;;;;10.18;9.05;;;;;;;16.54;100.00;94412.81;5074828;28;20177;-60
2022/05/18 05:37:39;;;;;;;10.32;7.90;;;;;;;16.47;100.00;94404.97;5074878;28;20612;-62
2022/05/18 05:40:06;;;;;;;11.63;9.93;;;;;;;16.44;100.00;94405.31;5073557;28;20652;-60
2022/05/18 05:42:32;;;;;;;11.02;9.82;;;;;;;16.43;100.00;94413.19;5074824;28;20180;-60
2022/05/18 05:44:57;;;;;;;11.18;9.25;;;;;;;16.49;100.00;94417.66;5073534;28;20180;-60
2022/05/18 05:47:23;;;;;;;11.75;9.35;;;;;;;16.48;100.00;94421.19;5075211;28;20646;-59
2022/05/18 05:49:48;;;;;;;13.10;9.68;;;;;;;16.46;100.00;94429.03;5074461;28;20173;-62
2022/05/18 05:52:14;;;;;;;11.02;9.40;;;;;;;16.32;100.00;94432.31;5074316;28;20705;-59
2022/05/18 05:54:39;;;;;;;11.35;9.68;;;;;;;16.29;100.00;94430.13;5074335;28;20197;-61
2022/05/18 05:57:06;;;;;;;10.27;9.00;;;;;;;16.18;100.00;94442.53;5074666;28;20181;-62
2022/05/18 05:59:32;;;;;;;11.77;9.27;;;;;;;16.11;100.00;94449.28;5074284;28;20195;-61
2022/05/18 06:01:59;;;;;;;14.90;8.85;;;;;;;15.97;100.00;94453.38;5074568;28;20188;-60
2022/05/18 06:04:25;;;;;;;11.75;9.77;;;;;;;15.84;100.00;94445.41;5074120;28;20251;-61
2022/05/18 06:06:50;;;;;;;12.65;9.98;;;;;;;15.76;100.00;94460.81;5073074;28;20216;-61
2022/05/18 06:09:16;;;;;;;11.30;9.45;;;;;;;15.78;100.00;94453.75;5074009;28;20192;-59
2022/05/18 06:11:41;;;;;;;12.88;10.63;;;;;;;15.66;100.00;94440.50;5074288;28;20184;-58
2022/05/18 06:14:07;;;;;;;14.38;9.65;;;;;;;15.58;100.00;94440.53;5074305;28;20209;-61
2022/05/18 06:16:32;;;;;;;13.25;10.45;;;;;;;15.68;100.00;94442.91;5072950;28;20684;-62
2022/05/18 06:18:59;;;;;;;11.40;9.80;;;;;;;15.69;100.00;94450.44;5073963;28;20204;-62
2022/05/18 06:21:26;;;;;;;11.75;10.55;;;;;;;15.71;100.00;94450.28;5074082;28;20197;-62
2022/05/18 06:23:51;;;;;;;12.25;9.57;;;;;;;15.61;100.00;94457.34;5072349;28;20585;-59
2022/05/18 06:26:16;;;;;;;12.88;9.75;;;;;;;15.58;100.00;94453.34;5074177;28;20666;-59
2022/05/18 06:28:42;;;;;;;10.82;9.02;;;;;;;15.50;100.00;94465.38;5073648;28;20189;-60
2022/05/18 06:31:07;;;;;;;11.75;9.52;;;;;;;15.48;100.00;94462.19;5055757;28;20180;-60
2022/05/18 06:33:34;;;;;;;11.50;9.23;;;;;;;15.41;100.00;94461.22;5073418;28;20204;-61
2022/05/18 06:36:01;;;;;;;12.25;8.55;;;;;;;15.40;100.00;94469.84;5055839;28;20206;-61
2022/05/18 06:38:26;;;;;;;10.02;8.10;;;;;;;15.44;100.00;94471.16;5070845;28;20189;-61
2022/05/18 06:43:35;;;;;;;11.00;8.00;;;;;;;15.34;100.00;94466.19;5073500;28;20617;-58
2022/05/18 06:46:01;;;;;;;9.15;7.88;;;;;;;15.39;100.00;94479.28;5080433;23;20223;-60
2022/05/18 06:48:28;;;;;;;8.35;7.45;;;;;;;15.37;100.00;94481.22;5082163;28;20200;-61
2022/05/18 06:50:53;;;;;;;11.57;9.02;;;;;;;15.43;100.00;94470.34;5093677;28;20184;-59
2022/05/18 06:53:19;;;;;;;9.60;7.43;;;;;;;15.54;100.00;94480.25;5093483;28;20287;-62
2022/05/18 06:55:44;;;;;;;10.57;7.88;;;;;;;15.51;100.00;94470.34;5093651;28;20211;-61
2022/05/18 06:58:10;;;;;;;8.45;7.55;;;;;;;15.60;100.00;94487.28;5093039;28;20307;-62
2022/05/18 07:00:36;;;;;;;10.32;7.85;;;;;;;15.60;100.00;94486.50;5093364;28;20189;-61
2022/05/18 07:03:01;;;;;;;9.45;8.07;;;;;;;15.63;100.00;94484.41;5093057;28;20200;-59
2022/05/18 07:05:27;;;;;;;9.80;8.07;;;;;;;15.64;100.00;94475.75;5093559;28;20253;-61
2022/05/18 07:07:52;;;;;;;11.05;8.27;;;;;;;15.74;100.00;94483.25;5092858;28;20333;-61
2022/05/18 07:10:18;;;;;;;11.63;8.23;;;;;;;15.78;100.00;94484.50;5093262;28;20180;-61
2022/05/18 07:12:43;;;;;;;10.88;7.90;;;;;;;15.84;100.00;94487.22;5091520;28;20197;-61
2022/05/18 07:15:09;;;;;;;8.88;7.95;;;;;;;16.00;100.00;94486.34;5091623;28;20180;-59
2022/05/18 07:17:35;;;;;;;11.80;9.20;;;;;;;16.02;100.00;94486.22;5093228;28;20669;-62
2022/05/18 07:20:02;;;;;;;10.45;8.70;;;;;;;16.06;100.00;94498.50;5093185;28;20180;-62
2022/05/18 07:22:28;;;;;;;8.60;7.20;;;;;;;16.13;100.00;94491.75;5093049;28;20180;-60
2022/05/18 07:24:53;;;;;;;9.25;7.82;;;;;;;16.12;100.00;94490.16;5092952;28;20645;-61
2022/05/18 07:27:19;;;;;;;10.40;8.48;;;;;;;16.25;100.00;94493.00;5092997;28;20164;-60
2022/05/18 07:29:44;;;;;;;8.27;7.35;;;;;;;16.25;100.00;94495.56;5092638;28;20630;-62
2022/05/18 07:32:12;;;;;;;9.05;8.00;;;;;;;16.36;100.00;94497.72;5092725;28;20206;-59
2022/05/18 07:34:42;;;;;;;12.15;9.20;;;;;;;16.40;100.00;94506.69;5092740;28;20307;-59
2022/05/18 07:37:08;;;;;;;13.30;8.82;;;;;;;16.40;100.00;94506.69;5091205;28;20176;-61
2022/05/18 07:39:34;;;;;;;12.10;8.27;;;;;;;16.47;100.00;94507.63;5091397;28;20258;-60
2022/05/18 07:42:00;;;;;;;9.35;8.07;;;;;;;16.42;100.00;94509.88;5092510;28;20204;-63
2022/05/18 07:44:26;;;;;;;9.52;8.27;;;;;;;16.42;100.00;94511.66;5090666;28;20223;-62
2022/05/18 07:46:51;;;;;;;9.10;8.20;;;;;;;16.45;100.00;94514.69;5092678;28;20556;-61
2022/05/18 07:49:17;;;;;;;12.48;8.73;;;;;;;16.45;100.00;94529.28;5091848;28;20204;-59
2022/05/18 07:51:43;;;;;;;9.38;8.30;;;;;;;16.55;100.00;94524.75;5090979;28;20196;-61
2022/05/18 07:54:09;;;;;;;10.05;8.52;;;;;;;16.59;100.00;94516.56;5092415;28;20211;-62
2022/05/18 07:56:35;;;;;;;9.02;7.88;;;;;;;16.61;100.00;94522.31;5090909;28;20214;-61
2022/05/18 07:59:03;;;;;;;13.60;7.72;;;;;;;16.75;100.00;94531.06;5092157;28;20200;-59
2022/05/18 08:01:28;;;;;;;10.23;9.23;;;;;;;16.72;100.00;94532.19;5092693;28;20191;-61
2022/05/18 08:03:54;;;;;;;11.50;8.05;;;;;;;16.96;100.00;94530.44;5092306;28;20192;-61
2022/05/18 08:06:19;;;;;;;11.73;7.95;;;;;;;16.79;100.00;94532.31;5091015;28;20203;-59
2022/05/18 08:08:45;;;;;;;8.77;7.85;;;;;;;16.82;100.00;94521.72;5092084;28;20199;-58
2022/05/18 08:16:38;;;;;;;9.63;8.15;;;;;;;17.23;100.00;94535.06;5093235;28;20183;-59
2022/05/18 08:19:06;;;;;;;8.48;7.68;;;;;;;17.26;100.00;94550.13;5092013;28;20199;-62
2022/05/18 08:21:31;;;;;;;13.45;9.02;;;;;;;17.24;100.00;94541.78;5092696;28;20190;-62
2022/05/18 08:23:57;;;;;;;10.50;9.32;;;;;;;17.40;100.00;94551.94;5090633;28;20200;-62
2022/05/18 08:26:23;;;;;;;9.80;8.50;;;;;;;17.42;100.00;94555.94;5092590;28;20554;-61
2022/05/18 08:28:49;;;;;;;11.85;8.43;;;;;;;17.38;100.00;94548.75;5091827;28;20584;-61
2022/05/18 08:31:17;;;;;;;14.38;8.48;;;;;;;17.57;100.00;94548.28;5092600;28;20181;-59
2022/05/18 08:33:43;;;;;;;10.68;8.23;;;;;;;17.57;100.00;94550.88;5090478;28;20242;-62
2022/05/18 08:36:08;;;;;;;9.45;8.45;;;;;;;17.55;100.00;94550.25;5090818;28;20275;-61
2022/05/18 08:38:35;;;;;;;11.15;7.90;;;;;;;17.42;100.00;94534.56;5091948;28;20204;-62
2022/05/18 08:41:30;;;;;;;9.25;8.20;;;;;;;17.51;100.00;94526.63;5090899;28;20191;-61
2022/05/18 08:43:59;;;;;;;11.55;8.20;;;;;;;17.65;100.00;94537.94;5090541;28;20295;-60
2022/05/18 08:46:55;;;;;;;11.05;7.93;;;;;;;17.72;100.00;94545.72;5091820;28;20248;-60
2022/05/18 08:49:49;;;;;;;12.15;8.02;;;;;;;17.67;100.00;94548.84;5090347;28;20204;-60
2022/05/18 08:52:39;;;;;;;10.05;6.63;;;;;;;17.39;100.00;94534.94;5091925;28;20210;-59
2022/05/18 08:55:43;;;;;;;8.45;7.10;;;;;;;17.38;100.00;94548.75;5091936;28;20184;-60
2022/05/18 08:58:15;;;;;;;7.80;7.00;;;;;;;17.57;100.00;94548.28;5080948;28;20304;-61
2022/05/18 09:00:45;;;;;;;8.68;7.00;;;;;;;17.94;100.00;94578.28;5092092;28;20599;-61
2022/05/18 09:03:19;;;;;;;9.52;7.30;;;;;;;18.05;100.00;94554.72;5093324;28;20192;-61
2022/05/18 09:05:54;;;;;;;10.82;7.00;;;;;;;18.19;100.00;94562.44;5094164;28;20219;-58
2022/05/18 09:08:29;;;;;;;10.95;7.95;;;;;;;18.32;100.00;94554.88;5095505;28;20214;-61
2022/05/18 09:11:12;;;;;;;7.38;6.68;;;;;;;18.14;100.00;94545.94;5095545;28;20191;-60
2022/05/18 09:13:38;;;;;;;9.10;6.90;;;;;;;18.25;100.00;94543.72;5095399;28;20196;-63
2022/05/18 09:16:16;;;;;;;10.57;7.25;;;;;;;18.36;100.00;94548.38;5094268;28;20269;-59
2022/05/18 09:18:41;;;;;;;8.43;6.57;;;;;;;18.35;100.00;94546.81;5093781;28;20223;-61
2022/05/18 09:21:19;;;;;;;9.18;7.68;;;;;;;18.51;100.00;94532.16;5101438;22;20686;-59
2022/05/18 09:24:07;;;;;;;6.63;5.95;;;;;;;18.28;100.00;94548.50;5041810;28;20255;-59
2022/05/18 09:27:00;;;;;;;10.30;6.05;;;;;;;18.14;100.00;94533.09;5035239;28;20301;-59
2022/05/18 09:29:38;;;;;;;7.65;6.35;;;;;;;18.44;100.00;94545.75;5034716;28;20197;-58
2022/05/18 09:32:42;;;;;;;6.88;5.95;;;;;;;18.90;100.00;94548.03;5034961;28;20221;-62
2022/05/18 09:35:32;;;;;;;5.97;5.30;;;;;;;18.86;100.00;94570.00;5015511;28;20193;-61
2022/05/18 09:38:10;;;;;;;8.27;5.88;;;;;;;18.66;100.00;94569.78;5034832;28;20210;-60
2022/05/18 09:40:45;;;;;;;7.00;5.57;;;;;;;18.58;100.00;94582.78;5034744;28;20178;-61
2022/05/18 09:43:26;;;;;;;7.45;5.32;;;;;;;18.48;100.00;94564.22;5034804;28;20225;-62
2022/05/18 09:45:54;;;;;;;5.57;5.05;;;;;;;18.55;100.00;94547.06;5016723;28;20244;-63
2022/05/18 09:48:47;;;;;;;6.43;5.65;;;;;;;18.61;100.00;94568.72;5034508;28;20209;-60
2022/05/18 09:51:13;;;;;;;5.88;4.88;;;;;;;18.63;100.00;94562.41;5034785;28;20205;-60
2022/05/18 09:53:40;;;;;;;5.25;4.75;;;;;;;18.63;100.00;94522.97;5016353;28;20232;-62
2022/05/18 09:56:17;;;;;;;8.75;5.88;;;;;;;18.47;100.00;94492.31;5034406;28;20182;-60
2022/05/18 09:58:46;;;;;;;7.47;5.40;;;;;;;18.66;100.00;94464.19;5034405;28;20626;-60
2022/05/18 10:09:55;;;;;;;12.85;7.28;;;;;;;18.02;100.00;94513.91;5034757;28;20256;-61
2022/05/18 10:12:30;;;;;;;12.23;7.05;;;;;;;17.90;100.00;94515.31;5034345;28;20406;-62
2022/05/18 10:15:03;;;;;;;10.70;6.03;;;;;;;17.54;100.00;94512.63;5016472;28;20205;-61
2022/05/18 10:17:35;;;;;;;8.65;5.78;;;;;;;17.45;100.00;94529.09;5034666;28;20204;-60
2022/05/18 10:20:06;;;;;;;9.63;6.97;;;;;;;16.99;100.00;94523.19;5034119;28;20233;-59
2022/05/18 10:22:38;;;;;;;14.88;7.30;;;;;;;17.06;100.00;94528.44;5034371;28;20202;-62
2022/05/18 10:25:14;;;;;;;8.68;6.68;;;;;;;16.98;100.00;94543.91;5033748;28;20189;-60
2022/05/18 10:27:44;;;;;;;10.50;8.13;;;;;;;16.71;100.00;94568.31;5015865;28;20311;-59
2022/05/18 10:30:14;;;;;;;15.00;8.73;;;;;;;16.95;100.00;94555.31;5033646;28;20166;-64
2022/05/18 10:32:54;;;;;;;12.38;7.30;;;;;;;16.62;100.00;94575.25;5033552;28;20206;-60
2022/05/18 10:35:49;;;;;;;10.95;6.65;;;;;;;16.48;100.00;94573.34;5033312;28;20174;-60
2022/05/18 10:38:23;;;;;;;12.23;6.65;;;;;;;16.68;100.00;94581.50;5033411;28;20198;-60
2022/05/18 10:40:52;;;;;;;10.13;6.13;;;;;;;16.66;100.00;94586.78;5033846;28;20187;-59
2022/05/18 10:43:27;;;;;;;11.60;5.93;;;;;;;16.72;100.00;94588.66;5033309;28;20198;-58
2022/05/18 10:45:54;;;;;;;6.50;5.60;;;;;;;16.55;100.00;94583.78;5033678;28;20559;-62
2022/05/18 10:48:23;;;;;;;10.40;6.13;;;;;;;16.62;100.00;94592.44;5033162;28;20700;-58
2022/05/18 10:50:49;;;;;;;6.57;5.80;;;;;;;16.61;100.00;94588.25;5033389;28;20257;-60
2022/05/18 10:53:17;;;;;;;11.13;5.38;;;;;;;16.56;100.00;94595.69;5015233;28;20221;-62
2022/05/18 10:56:05;;;;;;;6.50;5.47;;;;;;;16.53;100.00;94596.81;5015307;28;20651;-58
2022/05/18 10:58:33;;;;;;;7.22;4.97;;;;;;;16.36;100.00;94609.84;5033006;28;20209;-59
2022/05/18 11:01:07;;;;;;;6.75;4.57;;;;;;;16.37;100.00;94614.81;5033013;28;20660;-62
2022/05/18 11:03:45;;;;;;;6.25;4.65;;;;;;;16.31;100.00;94612.91;5033122;28;20203;-61
2022/05/18 11:06:16;;;;;;;9.07;5.80;;;;;;;16.22;100.00;94623.34;5033407;28;20192;-60
2022/05/18 11:08:42;;;;;;;11.57;5.47;;;;;;;16.28;100.00;94620.91;5015138;28;20198;-59
2022/05/18 11:11:20;;;;;;;11.13;5.95;;;;;;;16.40;100.00;94636.75;5015245;28;20265;-58
2022/05/18 11:14:13;;;;;;;11.00;6.85;;;;;;;16.48;100.00;94640.09;5054539;23;20237;-63
2022/05/18 11:16:59;;;;;;;11.93;6.38;;;;;;;16.90;100.00;94636.41;5093508;28;20272;-58
2022/05/18 11:19:27;;;;;;;7.20;5.68;;;;;;;16.95;100.00;94645.22;5093179;28;20208;-59
2022/05/18 11:22:05;;;;;;;7.28;5.47;;;;;;;17.00;100.00;94637.00;5092810;28;20172;-58
2022/05/18 11:24:44;;;;;;;6.80;4.95;;;;;;;16.94;100.00;94637.69;5092720;28;20204;-60
2022/05/18 11:27:19;;;;;;;6.80;3.78;;;;;;;16.95;100.00;94634.16;5093122;28;20187;-61
2022/05/18 11:29:50;;;;;;;7.22;3.58;;;;;;;16.90;100.00;94646.69;5092877;28;20172;-60
2022/05/18 11:32:31;;;;;;;3.80;2.17;;;;;;;16.67;100.00;94647.44;5092672;28;20176;-59
2022/05/18 11:35:27;;;;;;;2.17;2.08;;;;;;;16.94;100.00;94656.47;5092488;28;20168;-61
2022/05/18 11:38:06;;;;;;;2.08;1.90;;;;;;;16.70;100.00;94659.91;5092696;28;20627;-58
2022/05/18 11:40:50;;;;;;;2.85;1.60;;;;;;;16.59;100.00;94667.19;5092623;28;20650;-60
2022/05/18 11:43:30;;;;;;;1.45;1.35;;;;;;;16.61;100.00;94665.25;5092734;28;20219;-61
2022/05/18 11:46:17;;;;;;;1.95;1.20;;;;;;;16.44;100.00;94672.16;5092596;28;20160;-59
2022/05/18 11:49:17;;;;;;;1.00;1.00;;;;;;;16.59;100.00;94673.13;5092292;28;20234;-59
2022/05/18 11:52:25;;;;;;;2.05;1.30;;;;;;;16.60;100.00;94686.78;5092433;28;20217;-58
2022/05/18 11:55:06;;;;;;;0.95;0.73;;;;;;;16.48;100.00;94693.97;5092047;28;20220;-61